createdAt,value
2019-01-17T00:00:46.673Z,22.03
2019-01-17T00:03:39.586Z,17.60
2019-01-17T00:06:41.959Z,18.93
2019-01-17T00:09:31.902Z,16.80
2019-01-17T00:12:24.686Z,19.07
2019-01-17T00:15:20.564Z,21.77
2019-01-17T00:18:11.363Z,20.67
2019-01-17T00:20:55.612Z,18.47
2019-01-17T00:23:43.154Z,14.10
2019-01-17T00:26:33.143Z,17.63
2019-01-17T00:29:24.858Z,17.13
2019-01-17T00:32:24.321Z,17.00
2019-01-17T00:35:18.541Z,16.67
2019-01-17T00:38:07.590Z,16.60
2019-01-17T00:40:57.760Z,17.80
2019-01-17T00:44:06.020Z,14.67
2019-01-17T00:46:50.151Z,18.03
2019-01-17T00:49:55.581Z,18.40
2019-01-17T00:52:45.757Z,17.20
2019-01-17T00:55:34.881Z,18.73
2019-01-17T00:58:37.314Z,22.80
2019-01-17T01:01:42.391Z,15.63
2019-01-17T01:04:47.398Z,13.80
2019-01-17T01:07:55.290Z,15.13
2019-01-17T01:10:54.309Z,19.33
2019-01-17T01:13:50.532Z,28.60
2019-01-17T01:16:38.935Z,13.37
2019-01-17T01:19:31.735Z,17.03
2019-01-17T01:22:33.364Z,14.30
2019-01-17T01:25:26.627Z,18.87
2019-01-17T01:28:20.117Z,16.90
2019-01-17T01:31:13.339Z,20.90
2019-01-17T01:34:04.597Z,18.33
2019-01-17T01:37:10.120Z,19.80
2019-01-17T01:40:00.232Z,21.17
2019-01-17T01:42:59.640Z,19.63
2019-01-17T01:45:52.546Z,18.87
2019-01-17T01:48:48.791Z,20.93
2019-01-17T01:51:37.705Z,23.07
2019-01-17T01:54:10.802Z,19.27
2019-01-17T01:56:42.170Z,20.80
2019-01-17T01:59:24.040Z,19.17
2019-01-17T02:01:57.733Z,20.90
2019-01-17T02:04:32.801Z,22.07
2019-01-17T02:07:15.844Z,20.67
2019-01-17T02:09:47.116Z,23.10
2019-01-17T02:12:18.411Z,20.57
2019-01-17T02:14:49.758Z,18.97
2019-01-17T02:17:21.312Z,20.20
2019-01-17T02:19:52.604Z,18.73
2019-01-17T02:22:29.005Z,18.50
2019-01-17T02:25:05.190Z,16.50
2019-01-17T02:27:36.547Z,19.77
2019-01-17T02:30:08.518Z,23.37
2019-01-17T02:32:41.667Z,18.83
2019-01-17T02:35:12.964Z,16.67
2019-01-17T02:37:44.233Z,16.10
2019-01-17T02:40:16.119Z,15.40
2019-01-17T02:42:47.336Z,12.70
2019-01-17T02:45:18.841Z,15.90
2019-01-17T02:47:50.110Z,19.27
2019-01-17T02:50:21.340Z,10.17
2019-01-17T02:52:52.595Z,11.80
2019-01-17T02:55:23.847Z,9.57
2019-01-17T02:57:55.215Z,11.43
2019-01-17T03:00:26.644Z,11.77
2019-01-17T03:02:57.882Z,11.70
2019-01-17T03:05:29.113Z,11.90
2019-01-17T03:08:00.417Z,13.10
2019-01-17T03:10:31.693Z,13.70
2019-01-17T03:13:02.949Z,16.10
2019-01-17T03:15:34.199Z,17.90
2019-01-17T03:18:05.706Z,22.90
2019-01-17T03:20:36.941Z,16.93
2019-01-17T03:23:08.207Z,21.47
2019-01-17T03:25:39.463Z,22.80
2019-01-17T03:28:10.754Z,21.50
2019-01-17T03:30:42.049Z,20.87
2019-01-17T03:33:13.357Z,20.80
2019-01-17T03:35:44.645Z,22.70
2019-01-17T03:38:15.903Z,22.10
2019-01-17T03:40:47.154Z,22.73
2019-01-17T03:43:18.399Z,24.00
2019-01-17T03:45:49.648Z,24.73
2019-01-17T03:48:20.839Z,20.97
2019-01-17T03:50:52.108Z,23.33
2019-01-17T03:53:23.331Z,23.23
2019-01-17T03:55:55.143Z,21.27
2019-01-17T03:58:26.354Z,18.53
2019-01-17T04:00:57.627Z,19.33
2019-01-17T04:03:28.787Z,21.57
2019-01-17T04:06:00.011Z,17.97
2019-01-17T04:08:31.282Z,27.23
2019-01-17T04:11:02.655Z,19.40
2019-01-17T04:13:33.956Z,25.60
2019-01-17T04:16:05.514Z,22.10
2019-01-17T04:18:36.738Z,22.67
2019-01-17T04:21:08.038Z,23.37
2019-01-17T04:23:39.304Z,21.90
2019-01-17T04:26:10.681Z,26.00
2019-01-17T04:28:41.910Z,23.87
2019-01-17T04:31:13.236Z,28.37
2019-01-17T04:33:44.478Z,31.00
2019-01-17T04:36:15.781Z,28.60
2019-01-17T04:38:46.981Z,25.47
2019-01-17T04:41:18.254Z,28.53
2019-01-17T04:43:49.489Z,39.30
2019-01-17T04:46:20.752Z,28.80
2019-01-17T04:48:52.217Z,32.17
2019-01-17T04:51:23.485Z,26.33
2019-01-17T04:53:54.721Z,28.53
2019-01-17T04:56:25.886Z,34.40
2019-01-17T04:58:57.299Z,31.83
2019-01-17T05:01:28.552Z,34.30
2019-01-17T05:03:59.765Z,27.27
2019-01-17T05:06:31.048Z,31.13
2019-01-17T05:09:02.315Z,28.57
2019-01-17T05:11:33.616Z,30.47
2019-01-17T05:14:04.991Z,30.20
2019-01-17T05:16:36.214Z,32.10
2019-01-17T05:19:07.500Z,26.73
2019-01-17T05:21:38.764Z,30.37
2019-01-17T05:24:10.122Z,28.53
2019-01-17T05:26:41.363Z,29.77
2019-01-17T05:29:12.526Z,29.30
2019-01-17T05:31:43.807Z,30.50
2019-01-17T05:34:15.064Z,32.70
2019-01-17T05:36:46.331Z,26.47
2019-01-17T05:39:17.659Z,31.17
2019-01-17T05:41:48.897Z,27.70
2019-01-17T05:44:20.171Z,26.20
2019-01-17T05:46:51.476Z,31.53
2019-01-17T05:49:22.721Z,28.80
2019-01-17T05:51:54.024Z,27.27
2019-01-17T05:54:25.181Z,31.07
2019-01-17T05:56:56.396Z,29.10
2019-01-17T05:59:29.051Z,29.47
2019-01-17T06:02:02.062Z,24.63
2019-01-17T06:04:33.446Z,28.33
2019-01-17T06:07:04.834Z,26.93
2019-01-17T06:09:36.120Z,26.87
2019-01-17T06:12:07.412Z,28.83
2019-01-17T06:14:39.026Z,28.40
2019-01-17T06:17:10.344Z,28.47
2019-01-17T06:19:41.599Z,25.90
2019-01-17T06:22:12.861Z,27.70
2019-01-17T06:24:44.186Z,27.97
2019-01-17T06:27:15.438Z,23.23
2019-01-17T06:29:46.736Z,31.73
2019-01-17T06:32:18.038Z,25.13
2019-01-17T06:34:49.292Z,26.00
2019-01-17T06:37:20.458Z,29.00
2019-01-17T06:39:51.864Z,22.47
2019-01-17T06:42:23.106Z,28.80
2019-01-17T06:44:54.290Z,27.00
2019-01-17T06:47:26.700Z,26.00
2019-01-17T06:49:57.909Z,27.07
2019-01-17T06:52:29.217Z,26.83
2019-01-17T06:55:00.549Z,23.53
2019-01-17T06:57:31.774Z,28.27
2019-01-17T07:00:03.022Z,22.70
2019-01-17T07:02:34.292Z,26.90
2019-01-17T07:05:06.331Z,25.07
2019-01-17T07:07:37.595Z,22.33
2019-01-17T07:10:11.875Z,24.23
2019-01-17T07:12:43.253Z,27.37
2019-01-17T07:15:14.809Z,24.27
2019-01-17T07:17:46.059Z,25.40
2019-01-17T07:20:17.932Z,25.73
2019-01-17T07:22:49.455Z,25.47
2019-01-17T07:25:20.872Z,23.83
2019-01-17T07:27:52.281Z,24.83
2019-01-17T07:30:25.512Z,27.10
2019-01-17T07:32:56.861Z,26.63
2019-01-17T07:35:28.521Z,25.83
2019-01-17T07:37:59.891Z,27.43
2019-01-17T07:40:31.231Z,19.00
2019-01-17T07:43:02.604Z,17.73
2019-01-17T07:45:33.982Z,16.37
2019-01-17T07:48:05.362Z,16.30
2019-01-17T07:50:36.636Z,14.80
2019-01-17T07:53:07.969Z,17.73
2019-01-17T07:55:39.385Z,14.90
2019-01-17T07:58:10.656Z,15.87
2019-01-17T08:00:41.906Z,14.00
2019-01-17T08:03:13.211Z,15.80
2019-01-17T08:05:44.468Z,13.47
2019-01-17T08:08:15.826Z,17.20
2019-01-17T08:10:47.084Z,17.70
2019-01-17T08:13:18.471Z,13.90
2019-01-17T08:15:49.782Z,11.80
2019-01-17T08:18:20.993Z,14.37
2019-01-17T08:20:52.376Z,20.97
2019-01-17T08:23:23.679Z,16.30
2019-01-17T08:25:55.042Z,16.70
2019-01-17T08:28:26.189Z,20.83
2019-01-17T08:30:57.585Z,18.87
2019-01-17T08:33:28.802Z,20.10
2019-01-17T08:36:00.162Z,16.77
2019-01-17T08:38:31.332Z,14.90
2019-01-17T08:41:02.643Z,15.57
2019-01-17T08:43:33.955Z,14.93
2019-01-17T08:46:05.337Z,14.97
2019-01-17T08:48:36.580Z,12.97
2019-01-17T08:51:07.965Z,17.83
2019-01-17T08:53:39.133Z,14.93
2019-01-17T08:56:11.105Z,10.63
2019-01-17T08:58:51.135Z,17.77
2019-01-17T09:01:28.509Z,16.40
2019-01-17T09:04:00.156Z,16.17
2019-01-17T09:06:31.353Z,22.20
2019-01-17T09:09:02.653Z,17.23
2019-01-17T09:11:33.926Z,15.73
2019-01-17T09:14:06.534Z,12.97
2019-01-17T09:16:37.879Z,14.90
2019-01-17T09:19:09.161Z,15.03
2019-01-17T09:21:40.457Z,14.10
2019-01-17T09:24:11.684Z,15.90
2019-01-17T09:26:42.979Z,11.20
2019-01-17T09:29:14.240Z,13.00
2019-01-17T09:31:45.522Z,15.10
2019-01-17T09:34:16.845Z,24.70
2019-01-17T09:36:48.166Z,14.37
2019-01-17T09:39:19.516Z,12.83
2019-01-17T09:41:50.694Z,13.13
2019-01-17T09:44:21.887Z,16.00
2019-01-17T09:46:53.148Z,16.47
2019-01-17T09:49:24.299Z,12.83
2019-01-17T09:51:55.657Z,17.80
2019-01-17T09:54:26.916Z,11.40
2019-01-17T09:56:58.161Z,12.93
2019-01-17T09:59:29.325Z,14.60
2019-01-17T10:02:00.592Z,16.40
2019-01-17T10:04:31.856Z,15.37
2019-01-17T10:07:03.096Z,19.27
2019-01-17T10:09:34.386Z,17.03
2019-01-17T10:12:06.041Z,14.37
2019-01-17T10:14:37.291Z,16.00
2019-01-17T10:17:57.282Z,8.70
2019-01-17T10:21:42.636Z,8.00
2019-01-17T10:25:01.831Z,4.90
2019-01-17T10:28:28.851Z,4.20
2019-01-17T10:31:35.743Z,6.23
2019-01-17T10:34:46.912Z,5.17
2019-01-17T10:38:22.249Z,10.30
2019-01-17T10:41:28.525Z,4.50
2019-01-17T10:44:44.008Z,5.93
2019-01-17T10:48:06.400Z,8.77
2019-01-17T10:51:51.414Z,4.60
2019-01-17T10:55:21.456Z,3.90
2019-01-17T10:58:51.807Z,3.80
2019-01-17T11:01:56.190Z,5.37
2019-01-17T11:05:35.862Z,5.87
2019-01-17T11:09:17.376Z,8.20
2019-01-17T11:12:55.526Z,10.07
2019-01-17T11:16:23.614Z,7.97
2019-01-17T11:19:58.545Z,5.80
2019-01-17T11:23:11.987Z,4.87
2019-01-17T11:26:17.348Z,3.63
2019-01-17T11:29:38.631Z,6.77
2019-01-17T11:32:55.292Z,9.63
2019-01-17T11:36:02.555Z,8.63
2019-01-17T11:39:21.880Z,12.67
2019-01-17T11:42:26.764Z,7.53
2019-01-17T11:45:38.098Z,13.10
2019-01-17T11:49:04.814Z,6.40
2019-01-17T11:52:59.854Z,5.50
2019-01-17T11:56:31.329Z,4.30
2019-01-17T11:59:41.952Z,5.63
2019-01-17T12:03:23.937Z,6.00
2019-01-17T12:05:55.192Z,6.07
2019-01-17T12:08:26.453Z,5.60
2019-01-17T12:10:57.747Z,6.07
2019-01-17T12:13:29.033Z,5.90
2019-01-17T12:16:00.410Z,5.27
2019-01-17T12:18:31.584Z,5.67
2019-01-17T12:21:02.877Z,5.40
2019-01-17T12:23:34.102Z,5.30
2019-01-17T12:26:05.488Z,5.20
2019-01-17T12:28:36.777Z,7.00
2019-01-17T12:31:08.109Z,5.10
2019-01-17T12:33:39.366Z,6.67
2019-01-17T12:36:10.619Z,5.20
2019-01-17T12:38:41.780Z,6.87
2019-01-17T12:41:13.073Z,7.03
2019-01-17T12:43:44.339Z,6.60
2019-01-17T12:46:15.651Z,9.53
2019-01-17T12:48:46.863Z,6.30
2019-01-17T12:51:18.076Z,6.80
2019-01-17T12:53:49.343Z,7.60
2019-01-17T12:56:20.708Z,10.10
2019-01-17T12:58:51.990Z,8.53
2019-01-17T13:01:23.268Z,8.90
2019-01-17T13:03:55.409Z,7.00
2019-01-17T13:06:26.819Z,6.73
2019-01-17T13:08:58.108Z,7.50
2019-01-17T13:11:29.452Z,10.63
2019-01-17T13:14:00.969Z,10.40
2019-01-17T13:16:32.240Z,8.63
2019-01-17T13:19:03.791Z,8.40
2019-01-17T13:21:35.150Z,12.13
2019-01-17T13:24:06.679Z,9.90
2019-01-17T13:26:38.111Z,10.17
2019-01-17T13:29:09.679Z,9.53
2019-01-17T13:31:40.981Z,7.60
2019-01-17T13:34:12.298Z,9.67
2019-01-17T13:36:43.602Z,8.57
2019-01-17T13:39:14.862Z,9.80
2019-01-17T13:41:46.159Z,11.67
2019-01-17T13:44:17.491Z,8.80
2019-01-17T13:46:48.798Z,7.30
2019-01-17T13:49:19.980Z,7.60
2019-01-17T13:51:51.268Z,6.80
2019-01-17T13:54:22.573Z,7.20
2019-01-17T13:56:53.883Z,6.23
2019-01-17T13:59:25.142Z,5.17
2019-01-17T14:01:56.575Z,5.20
2019-01-17T14:04:27.908Z,7.00
2019-01-17T14:06:59.172Z,9.17
2019-01-17T14:09:30.490Z,7.57
2019-01-17T14:12:01.702Z,6.87
2019-01-17T14:14:32.984Z,7.03
2019-01-17T14:17:04.281Z,6.63
2019-01-17T14:19:35.649Z,6.20
2019-01-17T14:22:07.439Z,5.03
2019-01-17T14:24:38.769Z,5.17
2019-01-17T14:27:13.973Z,6.90
2019-01-17T14:29:43.082Z,6.20
2019-01-17T14:32:14.405Z,6.00
2019-01-17T14:34:45.817Z,6.77
2019-01-17T14:37:17.444Z,5.37
2019-01-17T14:39:48.726Z,5.53
2019-01-17T14:42:19.997Z,6.97
2019-01-17T14:44:51.405Z,8.37
2019-01-17T14:47:22.656Z,5.90
2019-01-17T14:49:53.886Z,7.87
2019-01-17T14:52:25.103Z,7.50
2019-01-17T14:54:56.371Z,5.97
2019-01-17T14:57:28.978Z,5.80
2019-01-17T15:00:00.218Z,4.20
2019-01-17T15:02:31.455Z,4.50
2019-01-17T15:05:02.736Z,3.20
2019-01-17T15:07:33.999Z,3.93
2019-01-17T15:10:06.088Z,3.00
2019-01-17T15:12:37.396Z,2.00
2019-01-17T15:15:09.517Z,3.37
2019-01-17T15:17:40.797Z,5.90
2019-01-17T15:20:16.413Z,2.30
2019-01-17T15:22:49.476Z,2.93
2019-01-17T15:25:20.788Z,7.90
2019-01-17T15:27:52.061Z,2.30
2019-01-17T15:30:25.553Z,7.00
2019-01-17T15:32:56.924Z,10.33
2019-01-17T15:35:28.281Z,7.83
2019-01-17T15:37:59.513Z,3.43
2019-01-17T15:40:32.812Z,3.60
2019-01-17T15:43:04.568Z,5.00
2019-01-17T15:45:35.832Z,4.83
2019-01-17T15:48:07.120Z,4.47
2019-01-17T15:50:38.413Z,5.37
2019-01-17T15:53:09.692Z,5.43
2019-01-17T15:55:41.001Z,4.07
2019-01-17T15:58:12.272Z,6.97
2019-01-17T16:00:43.659Z,5.70
2019-01-17T16:03:14.935Z,3.57
2019-01-17T16:05:46.099Z,3.73
2019-01-17T16:08:17.330Z,4.17
2019-01-17T16:10:48.620Z,6.10
2019-01-17T16:13:19.894Z,3.30
2019-01-17T16:15:51.175Z,8.20
2019-01-17T16:18:22.424Z,5.80
2019-01-17T16:20:53.643Z,7.97
2019-01-17T16:23:24.876Z,3.80
2019-01-17T16:25:56.125Z,5.93
2019-01-17T16:28:27.423Z,9.40
2019-01-17T16:30:58.690Z,3.40
2019-01-17T16:33:29.914Z,7.20
2019-01-17T16:36:01.164Z,9.97
2019-01-17T16:38:32.448Z,7.00
2019-01-17T16:41:03.758Z,7.87
2019-01-17T16:43:35.001Z,6.60
2019-01-17T16:46:06.299Z,5.80
2019-01-17T16:48:37.569Z,8.63
2019-01-17T16:51:08.756Z,3.33
2019-01-17T16:53:40.044Z,4.87
2019-01-17T16:56:11.349Z,9.70
2019-01-17T16:58:42.630Z,18.50
2019-01-17T17:01:13.785Z,5.10
2019-01-17T17:03:45.071Z,8.90
2019-01-17T17:06:16.477Z,9.87
2019-01-17T17:08:47.769Z,6.20
2019-01-17T17:11:19.040Z,5.23
2019-01-17T17:13:50.362Z,3.30
2019-01-17T17:16:21.586Z,4.10
2019-01-17T17:18:52.823Z,5.30
2019-01-17T17:21:24.077Z,5.80
2019-01-17T17:23:58.492Z,9.80
2019-01-17T17:26:29.826Z,4.57
2019-01-17T17:29:04.725Z,5.80
2019-01-17T17:31:36.032Z,5.50
2019-01-17T17:34:07.434Z,6.90
2019-01-17T17:36:38.703Z,9.60
2019-01-17T17:39:11.531Z,6.03
2019-01-17T17:41:42.850Z,7.40
2019-01-17T17:44:14.057Z,11.60
2019-01-17T17:46:45.297Z,4.77
2019-01-17T17:49:16.569Z,3.30
2019-01-17T17:51:47.876Z,5.83
2019-01-17T17:54:19.114Z,5.97
2019-01-17T17:56:50.404Z,10.87
2019-01-17T17:59:21.630Z,5.30
2019-01-17T18:01:59.716Z,4.77
2019-01-17T18:04:31.061Z,9.67
2019-01-17T18:07:02.429Z,7.63
2019-01-17T18:09:33.638Z,11.83
2019-01-17T18:12:04.931Z,13.67
2019-01-17T18:14:36.157Z,6.87
2019-01-17T18:17:07.360Z,12.10
2019-01-17T18:19:38.646Z,10.00
2019-01-17T18:22:09.997Z,10.37
2019-01-17T18:24:41.276Z,15.43
2019-01-17T18:27:12.657Z,9.77
2019-01-17T18:29:45.990Z,12.53
2019-01-17T18:32:17.509Z,12.83
2019-01-17T18:34:48.894Z,9.33
2019-01-17T18:37:20.460Z,14.17
2019-01-17T18:39:51.880Z,8.07
2019-01-17T18:42:24.483Z,9.33
2019-01-17T18:44:55.823Z,6.47
2019-01-17T18:47:27.319Z,10.60
2019-01-17T18:49:58.700Z,8.80
2019-01-17T18:52:30.020Z,12.43
2019-01-17T18:55:01.316Z,10.57
2019-01-17T18:57:32.609Z,13.67
2019-01-17T19:00:05.493Z,19.00
2019-01-17T19:02:36.836Z,10.60
2019-01-17T19:05:08.286Z,8.00
2019-01-17T19:07:39.639Z,20.60
2019-01-17T19:10:11.946Z,8.37
2019-01-17T19:12:43.621Z,9.33
2019-01-17T19:15:21.767Z,10.17
2019-01-17T19:17:53.166Z,20.17
2019-01-17T19:20:24.650Z,11.70
2019-01-17T19:22:56.269Z,10.20
2019-01-17T19:25:27.731Z,12.70
2019-01-17T19:27:59.049Z,13.30
2019-01-17T19:35:33.984Z,11.60
2019-01-17T19:38:05.410Z,11.43
2019-01-17T19:40:36.801Z,14.70
2019-01-17T19:43:08.084Z,13.80
2019-01-17T19:45:39.332Z,13.63
2019-01-17T19:48:10.733Z,14.27
2019-01-17T19:50:43.203Z,16.57
2019-01-17T19:53:14.470Z,17.47
2019-01-17T19:55:49.286Z,19.00
2019-01-17T19:58:20.548Z,16.83
2019-01-17T20:00:51.843Z,16.57
2019-01-17T20:03:36.000Z,19.77
2019-01-17T20:06:08.045Z,20.77
2019-01-17T20:08:39.234Z,16.00
2019-01-17T20:11:10.519Z,14.17
2019-01-17T20:13:41.882Z,15.50
2019-01-17T20:16:13.189Z,18.70
2019-01-17T20:18:44.824Z,19.00
2019-01-17T20:21:16.134Z,22.40
2019-01-17T20:23:47.506Z,20.80
2019-01-17T20:26:18.852Z,18.90
2019-01-17T20:28:50.084Z,20.63
2019-01-17T20:31:21.336Z,16.30
2019-01-17T20:33:52.724Z,15.80
2019-01-17T20:36:24.051Z,17.07
2019-01-17T20:38:55.395Z,15.77
2019-01-17T20:41:26.694Z,20.63
2019-01-17T20:43:58.042Z,16.50
2019-01-17T20:46:30.884Z,17.33
2019-01-17T20:49:02.281Z,21.43
2019-01-17T20:51:33.610Z,19.33
2019-01-17T20:54:04.944Z,16.30
2019-01-17T20:56:36.262Z,21.60
2019-01-17T20:59:07.654Z,15.70
2019-01-17T21:02:05.931Z,19.63
2019-01-17T21:04:37.197Z,19.60
2019-01-17T21:07:08.720Z,20.07
2019-01-17T21:09:40.089Z,21.73
2019-01-17T21:12:11.404Z,21.17
2019-01-17T21:14:42.754Z,16.07
2019-01-17T21:17:14.121Z,17.63
2019-01-17T21:19:45.486Z,16.73
2019-01-17T21:22:21.444Z,15.63
2019-01-17T21:24:52.751Z,13.87
2019-01-17T21:27:30.698Z,20.17
2019-01-17T21:30:02.120Z,16.00
2019-01-17T21:32:33.833Z,17.60
2019-01-17T21:35:07.925Z,18.23
2019-01-17T21:37:39.539Z,18.10
2019-01-17T21:40:14.428Z,18.30
2019-01-17T21:42:45.758Z,17.23
2019-01-17T21:45:19.152Z,18.80
2019-01-17T21:47:50.489Z,17.93
2019-01-17T21:50:26.227Z,18.20
2019-01-17T21:52:57.454Z,21.50
2019-01-17T21:55:28.811Z,29.17
2019-01-17T21:58:00.104Z,27.67
2019-01-17T22:00:31.549Z,24.70
2019-01-17T22:03:02.802Z,24.23
2019-01-17T22:05:34.036Z,21.50
2019-01-17T22:08:05.416Z,20.57
2019-01-17T22:10:36.743Z,17.80
2019-01-17T22:13:07.990Z,20.67
2019-01-17T22:15:39.259Z,20.20
2019-01-17T22:18:10.507Z,20.37
2019-01-17T22:20:41.775Z,15.57
2019-01-17T22:23:14.052Z,14.57
2019-01-17T22:25:45.356Z,17.30
2019-01-17T22:28:16.601Z,14.90
2019-01-17T22:30:48.234Z,19.40
2019-01-17T22:33:19.509Z,15.63
2019-01-17T22:35:50.661Z,27.53
2019-01-17T22:38:22.101Z,14.00
2019-01-17T22:40:53.490Z,15.80
2019-01-17T22:43:26.461Z,19.67
2019-01-17T22:45:57.838Z,15.87
2019-01-17T22:48:29.046Z,11.50
2019-01-17T22:51:00.707Z,15.53
2019-01-17T22:53:31.979Z,13.63
2019-01-17T22:56:03.217Z,10.90
2019-01-17T22:58:35.890Z,15.87
2019-01-17T23:01:28.636Z,15.97
2019-01-17T23:04:04.228Z,15.13
2019-01-17T23:06:35.570Z,10.23
2019-01-17T23:09:10.045Z,12.37
2019-01-17T23:11:41.386Z,12.70
2019-01-17T23:14:12.743Z,15.37
2019-01-17T23:16:44.028Z,8.17
2019-01-17T23:19:15.360Z,16.07
2019-01-17T23:21:46.786Z,10.53
2019-01-17T23:24:18.278Z,11.93
2019-01-17T23:26:49.569Z,8.23
2019-01-17T23:29:20.942Z,8.23
2019-01-17T23:31:52.256Z,13.10
2019-01-17T23:34:23.584Z,11.03
2019-01-17T23:36:55.026Z,14.23
2019-01-17T23:39:26.475Z,9.27
2019-01-17T23:41:57.927Z,8.80
2019-01-17T23:44:30.163Z,10.77
2019-01-17T23:47:01.511Z,7.57
2019-01-17T23:49:32.837Z,13.00
2019-01-17T23:52:04.173Z,8.70
2019-01-17T23:54:35.552Z,9.00
2019-01-17T23:57:07.007Z,9.80
2019-01-17T23:59:38.320Z,8.37
